1842 NOT_NAMED (1842298N11080)


IBTrACS version v04r00. Visit IBTrACS website for data access.
Please direct all questions to the IBTrACS Q and A forum

Storm track - Intensity - Wind Radii - Intensity Data - Source Data - All data

Summary Information

Storm ID 1842298N11080
Start Oct 25 03Z
Landfall Oct 25 06Z
End Nov 2 03Z
ATCF IDs
Track status Best track data.

Storm track plot

Map of storm track

Intensity plots

No Intensity information for this storm


Radial wind information

No radial wind information for this storm


Position and Intensity Table

BASIN ISO_TIME_________ NATURE LAT LON
degrees north degrees east
NI 1842-10-25 03:00:00 NR 10.90 80.30
NI 06:00:00 NR 10.87 79.83
NI 09:00:00 NR 10.84 79.35
NI 12:00:00 NR 10.82 78.88
NI 15:00:00 NR 10.80 78.40
NI 18:00:00 NR 10.79 77.92
NI 21:00:00 NR 10.78 77.43
NI 1842-10-26 00:00:00 NR 10.79 76.93
NI 03:00:00 NR 10.80 76.40
NI 06:00:00 NR 10.81 75.84
NI 09:00:00 NR 10.83 75.26
NI 12:00:00 NR 10.86 74.68
NI 15:00:00 NR 10.90 74.10
NI 18:00:00 NR 10.96 73.53
NI 21:00:00 NR 11.04 72.97
NI 1842-10-27 00:00:00 NR 11.12 72.42
NI 03:00:00 NR 11.20 71.90
NI 06:00:00 NR 11.25 71.41
NI 09:00:00 NR 11.30 70.93
NI 12:00:00 NR 11.35 70.47
NI 15:00:00 NR 11.40 70.00
NI 18:00:00 NR 11.48 69.46
NI 21:00:00 NR 11.56 68.93
NI 1842-10-28 00:00:00 NR 11.64 68.43
NI 03:00:00 NR 11.70 68.00
NI 06:00:00 NR 11.73 67.70
NI 09:00:00 NR 11.76 67.47
NI 12:00:00 NR 11.78 67.28
NI 15:00:00 NR 11.80 67.10
NI 18:00:00 NR 11.85 66.87
NI 21:00:00 NR 11.90 66.64
NI 1842-10-29 00:00:00 NR 11.95 66.41
NI 03:00:00 NR 12.00 66.20
NI 06:00:00 NR 12.03 66.01
NI 09:00:00 NR 12.06 65.84
NI 12:00:00 NR 12.08 65.67
NI 15:00:00 NR 12.10 65.50
NI 18:00:00 NR 12.12 65.31
NI 21:00:00 NR 12.15 65.11
NI 1842-10-30 00:00:00 NR 12.17 64.90
NI 03:00:00 NR 12.20 64.70
NI 06:00:00 NR 12.22 64.50
NI 09:00:00 NR 12.23 64.31
NI 12:00:00 NR 12.26 64.11
NI 15:00:00 NR 12.30 63.90
NI 18:00:00 NR 12.36 63.68
NI 21:00:00 NR 12.43 63.46
NI 1842-10-31 00:00:00 NR 12.52 63.23
NI 03:00:00 NR 12.60 63.00
NI 06:00:00 NR 12.68 62.77
NI 09:00:00 NR 12.76 62.54
NI 12:00:00 NR 12.84 62.32
NI 15:00:00 NR 12.90 62.10
NI 18:00:00 NR 12.93 61.90
NI 21:00:00 NR 12.95 61.70
NI 1842-11-01 00:00:00 NR 12.97 61.50
NI 03:00:00 NR 13.00 61.30
NI 06:00:00 NR 13.06 61.07
NI 09:00:00 NR 13.14 60.84
NI 12:00:00 NR 13.22 60.61
NI 15:00:00 NR 13.30 60.40
NI 18:00:00 NR 13.38 60.21
NI 21:00:00 NR 13.46 60.03
NI 1842-11-02 00:00:00 NR 13.53 59.86
NI 03:00:00 NR 13.60 59.70

Source Information

Agency Information
USA
TOKYO
CMA
HKO
NEWDELHI
REUNION
BOM
NADI
WELLINGTON
DS824
TD9636 cons_worldwide_trop_cyclone_18710101-19891231-004:Line=1
TD9635
NEUMANN
MLC

All available IBTrACS Data

SEASON BASIN SUBBASIN ISO_TIME_________ NATURE LAT LON DIST2LAND LANDFALL IFLAG USA SSHS TD9636 LAT TD9636 LON TD9636 STAGE STORM SPEED STORM DIR
Year degrees north degrees east km km 1 degrees north degrees east kts degrees
1842 NI BB 1842-10-25 03:00:00 NR 10.90 80.30 43 0 __________O___ -1 10.90 80.30 7 9 266
1842 NI BB 06:00:00 NR 10.87 79.83 0 0 __________P___ -1 10.87 79.83 7 9 267
1842 NI BB 09:00:00 NR 10.84 79.35 0 0 __________P___ -1 10.84 79.35 7 9 267
1842 NI BB 12:00:00 NR 10.82 78.88 0 0 __________P___ -1 10.82 78.88 7 9 267
1842 NI BB 15:00:00 NR 10.80 78.40 0 0 __________O___ -1 10.80 78.40 7 9 268
1842 NI AS 18:00:00 NR 10.79 77.92 0 0 __________P___ -1 10.79 77.92 7 10 269
1842 NI AS 21:00:00 NR 10.78 77.43 0 0 __________P___ -1 10.78 77.43 7 10 270
1842 NI AS 1842-10-26 00:00:00 NR 10.79 76.93 0 0 __________P___ -1 10.79 76.93 7 10 271
1842 NI AS 03:00:00 NR 10.80 76.40 0 0 __________O___ -1 10.80 76.40 7 11 271
1842 NI AS 06:00:00 NR 10.81 75.84 10 10 __________P___ -1 10.81 75.84 7 11 271
1842 NI AS 09:00:00 NR 10.83 75.26 65 65 __________P___ -1 10.83 75.26 7 11 272
1842 NI AS 12:00:00 NR 10.86 74.68 119 119 __________P___ -1 10.86 74.68 7 11 274
1842 NI AS 15:00:00 NR 10.90 74.10 171 171 __________O___ -1 10.90 74.10 7 11 275
1842 NI AS 18:00:00 NR 10.96 73.53 216 216 __________P___ -1 10.96 73.53 7 11 277
1842 NI AS 21:00:00 NR 11.04 72.97 264 264 __________P___ -1 11.04 72.97 7 11 278
1842 NI AS 1842-10-27 00:00:00 NR 11.12 72.42 318 318 __________P___ -1 11.12 72.42 7 11 279
1842 NI AS 03:00:00 NR 11.20 71.90 362 362 __________O___ -1 11.20 71.90 7 10 277
1842 NI AS 06:00:00 NR 11.25 71.41 406 406 __________P___ -1 11.25 71.41 7 10 276
1842 NI AS 09:00:00 NR 11.30 70.93 456 456 __________P___ -1 11.30 70.93 7 9 276
1842 NI AS 12:00:00 NR 11.35 70.47 497 497 __________P___ -1 11.35 70.47 7 9 276
1842 NI AS 15:00:00 NR 11.40 70.00 545 545 __________O___ -1 11.40 70.00 7 10 277
1842 NI AS 18:00:00 NR 11.48 69.46 594 594 __________P___ -1 11.48 69.46 7 11 279
1842 NI AS 21:00:00 NR 11.56 68.93 655 655 __________P___ -1 11.56 68.93 7 10 279
1842 NI AS 1842-10-28 00:00:00 NR 11.64 68.43 708 708 __________P___ -1 11.64 68.43 7 9 279
1842 NI AS 03:00:00 NR 11.70 68.00 743 743 __________O___ -1 11.70 68.00 7 7 278
1842 NI AS 06:00:00 NR 11.73 67.70 771 771 __________P___ -1 11.73 67.70 7 5 276
1842 NI AS 09:00:00 NR 11.76 67.47 784 784 __________P___ -1 11.76 67.47 7 4 276
1842 NI AS 12:00:00 NR 11.78 67.28 803 803 __________P___ -1 11.78 67.28 7 4 277
1842 NI AS 15:00:00 NR 11.80 67.10 823 823 __________O___ -1 11.80 67.10 7 4 280
1842 NI AS 18:00:00 NR 11.85 66.87 842 842 __________P___ -1 11.85 66.87 7 5 282
1842 NI AS 21:00:00 NR 11.90 66.64 867 867 __________P___ -1 11.90 66.64 7 5 283
1842 NI AS 1842-10-29 00:00:00 NR 11.95 66.41 882 882 __________P___ -1 11.95 66.41 7 4 283
1842 NI AS 03:00:00 NR 12.00 66.20 902 902 __________O___ -1 12.00 66.20 7 4 282
1842 NI AS 06:00:00 NR 12.03 66.01 922 922 __________P___ -1 12.03 66.01 7 4 279
1842 NI AS 09:00:00 NR 12.06 65.84 937 937 __________P___ -1 12.06 65.84 7 3 278
1842 NI AS 12:00:00 NR 12.08 65.67 948 948 __________P___ -1 12.08 65.67 7 3 277
1842 NI AS 15:00:00 NR 12.10 65.50 968 968 __________O___ -1 12.10 65.50 7 4 277
1842 NI AS 18:00:00 NR 12.12 65.31 988 988 __________P___ -1 12.12 65.31 7 4 277
1842 NI AS 21:00:00 NR 12.15 65.11 1008 1003 __________P___ -1 12.15 65.11 7 4 277
1842 NI AS 1842-10-30 00:00:00 NR 12.17 64.90 1023 1023 __________P___ -1 12.17 64.90 7 4 277
1842 NI AS 03:00:00 NR 12.20 64.70 1043 1043 __________O___ -1 12.20 64.70 7 4 276
1842 NI AS 06:00:00 NR 12.22 64.50 1045 1031 __________P___ -1 12.22 64.50 7 4 275
1842 NI AS 09:00:00 NR 12.23 64.31 1031 1008 __________P___ -1 12.23 64.31 7 4 276
1842 NI AS 12:00:00 NR 12.26 64.11 1008 994 __________P___ -1 12.26 64.11 7 4 279
1842 NI AS 15:00:00 NR 12.30 63.90 994 971 __________O___ -1 12.30 63.90 7 4 284
1842 NI AS 18:00:00 NR 12.36 63.68 971 957 __________P___ -1 12.36 63.68 7 5 287
1842 NI AS 21:00:00 NR 12.43 63.46 957 929 __________P___ -1 12.43 63.46 7 5 289
1842 NI AS 1842-10-31 00:00:00 NR 12.52 63.23 929 906 __________P___ -1 12.52 63.23 7 5 290
1842 NI AS 03:00:00 NR 12.60 63.00 906 884 __________O___ -1 12.60 63.00 7 5 290
1842 NI AS 06:00:00 NR 12.68 62.77 884 863 __________P___ -1 12.68 62.77 7 5 290
1842 NI AS 09:00:00 NR 12.76 62.54 856 844 __________P___ -1 12.76 62.54 7 5 289
1842 NI AS 12:00:00 NR 12.84 62.32 844 823 __________P___ -1 12.84 62.32 7 5 287
1842 NI AS 15:00:00 NR 12.90 62.10 823 803 __________O___ -1 12.90 62.10 7 4 283
1842 NI AS 18:00:00 NR 12.93 61.90 803 782 __________P___ -1 12.93 61.90 7 4 277
1842 NI AS 21:00:00 NR 12.95 61.70 782 760 __________P___ -1 12.95 61.70 7 4 276
1842 NI AS 1842-11-01 00:00:00 NR 12.97 61.50 760 739 __________P___ -1 12.97 61.50 7 4 277
1842 NI AS 03:00:00 NR 13.00 61.30 739 717 __________O___ -1 13.00 61.30 7 4 282
1842 NI AS 06:00:00 NR 13.06 61.07 718 696 __________P___ -1 13.06 61.07 7 5 287
1842 NI AS 09:00:00 NR 13.14 60.84 685 664 __________P___ -1 13.14 60.84 7 5 289
1842 NI AS 12:00:00 NR 13.22 60.61 664 644 __________P___ -1 13.22 60.61 7 5 291
1842 NI AS 15:00:00 NR 13.30 60.40 644 624 __________O___ -1 13.30 60.40 7 4 292
1842 NI AS 18:00:00 NR 13.38 60.21 624 602 __________P___ -1 13.38 60.21 7 4 293
1842 NI AS 21:00:00 NR 13.46 60.03 604 593 __________P___ -1 13.46 60.03 7 4 294
1842 NI AS 1842-11-02 00:00:00 NR 13.53 59.86 593 574 __________P___ -1 13.53 59.86 7 4 295
1842 NI AS 03:00:00 NR 13.60 59.70 574 __________O___ -1 13.60 59.70 7 3 295